Time;durP1;ratioP1;P1;durP2;ratioP2;P2;SDS_P1;SDS_P2;PMS_P1;PMS_P2;Temp;Humidity;BMP_temperature;BMP_pressure;BME280_temperature;BME280_humidity;BME280_pressure;Samples;Min_cycle;Max_cycle;Signal;HPM_P1;HPM_P2
2021/06/09 00:00:06;;;;;;;17.38;15.65;;;17.80;71.50;;;;;;5074653;28;20029;-54
2021/06/09 00:02:33;;;;;;;55.28;14.43;;;17.80;68.30;;;;;;5072469;28;20085;-52
2021/06/09 00:05:00;;;;;;;12.82;11.38;;;17.40;68.50;;;;;;5055888;28;20079;-59
2021/06/09 00:07:28;;;;;;;18.60;15.80;;;17.20;66.10;;;;;;5075696;28;20028;-59
2021/06/09 00:09:55;;;;;;;23.60;6.80;;;17.10;68.90;;;;;;5076197;28;20020;-58
2021/06/09 00:12:22;;;;;;;22.70;19.83;;;17.20;66.70;;;;;;5074867;28;20105;-58
2021/06/09 00:14:50;;;;;;;15.38;2.92;;;17.40;72.30;;;;;;5074272;28;20049;-62
2021/06/09 00:17:18;;;;;;;18.02;12.30;;;17.40;61.20;;;;;;5056863;28;20039;-62
2021/06/09 00:19:45;;;;;;;5.85;3.08;;;17.30;69.70;;;;;;5073025;28;20105;-63
2021/06/09 00:22:12;;;;;;;22.27;12.45;;;17.30;61.80;;;;;;5073055;28;20486;-60
2021/06/09 00:24:40;;;;;;;19.92;13.63;;;17.70;73.00;;;;;;5072649;28;20031;-62
2021/06/09 00:27:07;;;;;;;14.43;10.95;;;17.80;64.60;;;;;;5054735;28;20111;-62
2021/06/09 00:29:35;;;;;;;7.97;6.07;;;17.80;70.90;;;;;;5072988;28;20021;-61
2021/06/09 00:32:03;;;;;;;6.90;3.15;;;17.80;69.00;;;;;;5073105;28;20024;-58
2021/06/09 00:34:30;;;;;;;3.67;1.98;;;17.50;66.60;;;;;;5074569;28;20055;-60
2021/06/09 00:36:57;;;;;;;4.43;2.03;;;17.60;57.70;;;;;;5075010;28;20146;-57
2021/06/09 00:39:25;;;;;;;16.58;5.20;;;17.60;56.20;;;;;;5074877;28;20032;-58
2021/06/09 00:41:52;;;;;;;14.02;5.10;;;17.70;60.40;;;;;;5074587;28;20020;-58
2021/06/09 00:44:20;;;;;;;11.50;7.05;;;17.70;63.70;;;;;;5075123;28;20027;-54
2021/06/09 00:46:47;;;;;;;8.32;5.80;;;17.70;60.60;;;;;;5074615;28;20035;-62
2021/06/09 00:49:15;;;;;;;10.80;9.32;;;17.90;59.20;;;;;;5074683;28;20036;-51
2021/06/09 00:51:42;;;;;;;10.52;2.60;;;18.20;64.00;;;;;;5074612;28;20020;-52
2021/06/09 00:54:09;;;;;;;10.27;4.15;;;18.20;53.70;;;;;;5073186;28;20074;-61
2021/06/09 00:56:38;;;;;;;25.42;6.47;;;18.10;56.10;;;;;;5055636;28;20028;-59
2021/06/09 00:59:07;;;;;;;15.23;6.13;;;18.40;66.40;;;;;;5074213;28;20025;-60
2021/06/09 01:01:35;;;;;;;4.20;2.13;;;18.60;64.30;;;;;;5074165;28;20056;-51
2021/06/09 01:04:04;;;;;;;11.95;4.32;;;18.70;62.00;;;;;;5074465;28;20028;-56
2021/06/09 01:06:32;;;;;;;8.80;3.30;;;18.80;57.70;;;;;;5074389;28;20397;-57
2021/06/09 01:09:00;;;;;;;9.60;1.20;;;18.90;61.90;;;;;;5073961;28;20020;-55
2021/06/09 01:11:28;;;;;;;5.13;2.55;;;19.00;50.80;;;;;;5073982;28;20063;-56
2021/06/09 01:13:56;;;;;;;5.50;4.05;;;19.10;53.30;;;;;;5073157;28;20048;-58
2021/06/09 01:16:25;;;;;;;17.52;1.38;;;19.10;65.80;;;;;;5073247;28;20047;-58
2021/06/09 01:18:53;;;;;;;8.07;2.75;;;19.00;55.30;;;;;;5055473;28;20013;-59
2021/06/09 01:21:31;;;;;;;3.35;1.90;;;19.20;58.70;;;;;;5073677;28;20498;-55
2021/06/09 01:24:00;;;;;;;24.15;3.80;;;19.00;57.00;;;;;;5064329;28;20033;-44
2021/06/09 01:26:30;;;;;;;6.32;1.65;;;18.90;59.10;;;;;;5073030;28;20116;-48
2021/06/09 01:29:00;;;;;;;14.48;3.03;;;18.70;51.60;;;;;;5073311;28;20082;-55
2021/06/09 01:31:28;;;;;;;8.20;3.08;;;19.00;62.20;;;;;;5073733;28;20084;-57
2021/06/09 01:34:03;;;;;;;11.50;3.25;;;19.20;60.60;;;;;;5073136;28;20057;-58
2021/06/09 01:36:35;;;;;;;9.52;1.67;;;19.20;62.60;;;;;;5072947;28;20395;-53
2021/06/09 01:39:09;;;;;;;5.20;1.98;;;19.20;59.30;;;;;;5073747;28;20020;-55
2021/06/09 01:41:41;;;;;;;45.45;4.25;;;19.10;50.30;;;;;;5073249;28;20040;-55
2021/06/09 01:44:09;;;;;;;7.93;1.52;;;19.20;57.70;;;;;;5073710;28;20017;-56
2021/06/09 01:46:37;;;;;;;2.97;0.65;;;19.20;51.10;;;;;;5072928;28;20119;-58
2021/06/09 01:49:11;;;;;;;2.58;1.33;;;19.20;59.60;;;;;;5055451;28;20017;-56
2021/06/09 01:51:39;;;;;;;6.00;1.67;;;19.20;58.30;;;;;;5073321;28;20032;-46
2021/06/09 01:54:08;;;;;;;30.38;7.50;;;19.60;62.00;;;;;;5073127;28;20449;-60
2021/06/09 01:56:36;;;;;;;13.65;6.07;;;19.40;60.10;;;;;;5060055;28;20036;-62
2021/06/09 01:59:14;;;;;;;17.60;6.45;;;19.50;62.70;;;;;;5072362;28;20025;-50
2021/06/09 02:01:41;;;;;;;18.95;5.18;;;19.70;61.70;;;;;;5073493;28;20491;-57
2021/06/09 02:04:13;;;;;;;17.58;7.57;;;19.50;59.00;;;;;;5073131;28;20080;-60
2021/06/09 02:06:42;;;;;;;20.38;9.40;;;19.50;63.40;;;;;;5045858;28;20035;-53
2021/06/09 02:09:13;;;;;;;12.48;4.00;;;19.60;66.00;;;;;;5069336;28;21178;-47
2021/06/09 02:11:43;;;;;;;13.33;6.43;;;19.30;55.10;;;;;;5069641;28;20507;-53
2021/06/09 02:14:11;;;;;;;13.15;6.80;;;19.30;56.70;;;;;;5067662;28;20052;-59
2021/06/09 02:16:41;;;;;;;22.30;6.65;;;19.20;54.60;;;;;;5068929;28;20036;-54
2021/06/09 02:19:09;;;;;;;16.92;9.50;;;19.40;59.60;;;;;;5068883;28;20121;-52
2021/06/09 02:21:40;;;;;;;11.40;3.47;;;19.50;56.60;;;;;;5069567;28;20440;-53
2021/06/09 02:24:09;;;;;;;8.75;7.22;;;19.30;47.90;;;;;;5048085;28;20040;-51
2021/06/09 02:26:39;;;;;;;12.73;6.00;;;19.40;59.60;;;;;;5069424;28;20108;-56
2021/06/09 02:29:08;;;;;;;9.20;7.32;;;19.20;57.30;;;;;;5070161;28;20032;-51
2021/06/09 02:31:37;;;;;;;16.50;6.80;;;19.20;56.80;;;;;;5069322;28;20017;-49
2021/06/09 02:34:11;;;;;;;12.30;7.63;;;19.00;50.90;;;;;;5066903;28;20374;-61
2021/06/09 02:36:40;;;;;;;11.25;7.30;;;19.00;50.10;;;;;;5069597;28;20033;-61
2021/06/09 02:39:08;;;;;;;2.35;2.15;;;19.10;58.50;;;;;;5055412;28;20107;-63
2021/06/09 02:41:35;;;;;;;13.00;8.48;;;19.10;54.20;;;;;;5072907;28;20028;-64
2021/06/09 02:44:04;;;;;;;9.30;8.40;;;19.30;58.50;;;;;;5072552;28;20434;-62
2021/06/09 02:46:36;;;;;;;9.65;7.00;;;19.40;55.40;;;;;;5072499;28;20020;-63
2021/06/09 02:49:07;;;;;;;7.13;3.80;;;19.30;54.50;;;;;;5072210;28;20032;-60
2021/06/09 02:51:47;;;;;;;5.50;4.15;;;19.40;47.20;;;;;;5072532;28;20071;-54
2021/06/09 02:54:34;;;;;;;18.52;4.05;;;19.30;56.70;;;;;;5072575;28;20040;-62
2021/06/09 02:57:19;;;;;;;7.93;5.82;;;19.20;55.50;;;;;;5072532;28;20097;-56
2021/06/09 02:59:57;;;;;;;12.43;5.18;;;19.40;54.60;;;;;;5072004;28;20024;-57
2021/06/09 03:02:40;;;;;;;12.55;5.03;;;19.50;56.90;;;;;;5071919;28;20021;-61
2021/06/09 03:05:36;;;;;;;17.55;5.50;;;19.50;54.20;;;;;;5071424;28;20029;-56
2021/06/09 03:08:43;;;;;;;6.05;1.88;;;19.50;55.40;;;;;;5043714;28;20372;-53
2021/06/09 03:11:22;;;;;;;4.45;1.58;;;19.40;54.20;;;;;;5032034;28;20035;-62
2021/06/09 03:13:59;;;;;;;4.90;2.95;;;19.30;47.00;;;;;;5054122;28;20045;-61
2021/06/09 03:16:55;;;;;;;3.97;2.72;;;19.50;55.30;;;;;;5071874;28;20025;-56
2021/06/09 03:19:32;;;;;;;5.63;2.40;;;20.10;54.70;;;;;;5072027;28;20485;-60
2021/06/09 03:22:19;;;;;;;7.63;2.05;;;20.40;51.90;;;;;;5053902;28;20135;-63
2021/06/09 03:24:53;;;;;;;3.33;2.22;;;20.50;50.00;;;;;;5058707;28;20032;-49
2021/06/09 03:27:29;;;;;;;4.82;2.15;;;20.50;53.10;;;;;;5067095;28;20502;-50
2021/06/09 03:30:11;;;;;;;6.47;2.17;;;20.60;51.20;;;;;;5067001;28;20024;-54
2021/06/09 03:32:44;;;;;;;3.33;1.60;;;20.70;51.30;;;;;;5068544;28;20042;-48
2021/06/09 03:35:22;;;;;;;7.13;1.50;;;20.60;52.00;;;;;;5067860;28;20438;-47
2021/06/09 03:37:53;;;;;;;2.63;1.30;;;20.60;52.30;;;;;;5066107;28;20028;-49
2021/06/09 03:40:28;;;;;;;1.77;1.20;;;20.60;51.90;;;;;;5065655;28;20035;-50
2021/06/09 03:43:01;;;;;;;1.85;1.10;;;20.70;50.50;;;;;;5066228;28;20087;-47
2021/06/09 03:45:33;;;;;;;2.92;1.20;;;20.70;50.90;;;;;;5068833;28;20112;-47
2021/06/09 03:48:02;;;;;;;2.08;1.00;;;20.70;50.20;;;;;;5068615;28;20052;-55
2021/06/09 03:50:30;;;;;;;3.17;1.48;;;20.70;50.90;;;;;;5065828;28;20029;-49
2021/06/09 03:53:02;;;;;;;1.33;0.90;;;20.80;50.50;;;;;;5068634;28;20550;-50
2021/06/09 03:55:35;;;;;;;2.72;0.80;;;20.90;51.10;;;;;;5068323;28;20036;-50
2021/06/09 03:58:02;;;;;;;;;;;21.00;51.00;;;;;;5069802;28;20029;-57
2021/06/09 04:00:31;;;;;;;2.20;0.70;;;21.00;49.00;;;;;;5065470;28;20000;-58
2021/06/09 04:02:59;;;;;;;3.42;0.70;;;20.90;49.90;;;;;;5068617;28;20039;-52
2021/06/09 04:05:28;;;;;;;4.22;0.70;;;20.80;49.70;;;;;;5048104;28;20033;-56
2021/06/09 04:07:58;;;;;;;2.75;0.60;;;20.90;49.30;;;;;;5069029;28;20020;-48
2021/06/09 04:10:27;;;;;;;5.35;0.80;;;20.90;49.40;;;;;;5064963;28;20024;-49
2021/06/09 04:12:56;;;;;;;3.55;0.88;;;20.90;50.40;;;;;;5067974;28;20056;-54
2021/06/09 04:15:26;;;;;;;1.90;0.63;;;20.80;48.50;;;;;;5065605;28;20105;-52
2021/06/09 04:17:55;;;;;;;8.15;1.02;;;20.70;49.40;;;;;;5068493;28;20157;-48
2021/06/09 04:20:27;;;;;;;7.82;1.38;;;20.50;49.50;;;;;;5064139;28;20048;-49
2021/06/09 04:22:56;;;;;;;1.42;0.60;;;20.50;49.40;;;;;;5064138;28;20389;-52
2021/06/09 04:25:24;;;;;;;2.40;0.60;;;20.50;51.40;;;;;;5064700;28;20069;-47
2021/06/09 04:27:53;;;;;;;1.65;0.60;;;20.60;49.50;;;;;;5049555;28;20025;-51
2021/06/09 04:30:22;;;;;;;1.55;0.68;;;20.50;49.20;;;;;;5068550;28;20078;-43
2021/06/09 04:32:55;;;;;;;0.57;0.40;;;20.30;50.20;;;;;;5073260;28;20028;-53
2021/06/09 04:35:36;;;;;;;2.00;0.45;;;20.10;51.60;;;;;;5074434;28;20074;-66
2021/06/09 04:38:04;;;;;;;0.85;0.55;;;19.90;50.60;;;;;;5074897;28;20106;-53
2021/06/09 04:40:32;;;;;;;0.98;0.43;;;19.60;50.90;;;;;;5074601;28;20031;-56
2021/06/09 04:43:00;;;;;;;3.50;0.60;;;19.50;52.00;;;;;;5074994;28;20036;-54
2021/06/09 04:45:29;;;;;;;1.27;0.57;;;19.30;52.10;;;;;;5056582;28;20025;-47
2021/06/09 04:47:57;;;;;;;1.35;0.47;;;19.10;51.00;;;;;;5056502;28;20344;-52
2021/06/09 04:50:26;;;;;;;0.55;0.25;;;18.90;52.90;;;;;;5074450;28;20031;-51
2021/06/09 04:53:09;;;;;;;1.85;0.47;;;18.80;52.50;;;;;;5074894;28;20067;-55
2021/06/09 04:55:44;;;;;;;1.30;0.30;;;18.60;53.60;;;;;;5073737;28;20483;-61
2021/06/09 04:58:14;;;;;;;0.63;0.20;;;18.50;53.50;;;;;;5074630;28;20024;-55
2021/06/09 05:00:43;;;;;;;1.98;0.40;;;18.40;53.40;;;;;;5074030;28;20094;-51
2021/06/09 05:03:11;;;;;;;4.03;0.45;;;18.40;53.00;;;;;;5075057;28;20021;-57
2021/06/09 05:05:39;;;;;;;0.90;0.30;;;18.40;54.10;;;;;;5074611;28;20408;-56
2021/06/09 05:08:06;;;;;;;0.22;0.22;;;18.40;55.40;;;;;;5074003;28;20099;-62
2021/06/09 05:10:35;;;;;;;0.85;0.30;;;18.60;55.30;;;;;;5074122;28;20043;-56
2021/06/09 05:13:20;;;;;;;0.70;0.50;;;18.70;54.00;;;;;;5074244;28;20044;-54
2021/06/09 05:15:53;;;;;;;2.05;0.40;;;18.80;53.20;;;;;;5074500;28;20470;-56
2021/06/09 05:18:33;;;;;;;0.95;0.50;;;18.80;53.60;;;;;;5073988;28;20059;-55
2021/06/09 05:21:00;;;;;;;2.05;0.30;;;18.90;53.20;;;;;;5073703;28;20578;-65
2021/06/09 05:23:33;;;;;;;2.90;0.30;;;18.90;52.50;;;;;;5074241;28;20028;-60
2021/06/09 05:26:02;;;;;;;0.88;0.45;;;18.90;51.80;;;;;;5073887;28;20111;-60
2021/06/09 05:28:33;;;;;;;1.35;0.40;;;18.90;53.90;;;;;;5074295;28;20028;-64
2021/06/09 05:31:01;;;;;;;0.50;0.30;;;18.90;53.00;;;;;;5073948;28;20107;-54
2021/06/09 05:33:30;;;;;;;1.67;0.50;;;19.00;52.60;;;;;;5073975;28;20017;-55
2021/06/09 05:35:59;;;;;;;2.50;0.85;;;19.00;52.60;;;;;;5073901;28;20036;-63
2021/06/09 05:38:27;;;;;;;1.83;0.57;;;18.90;52.30;;;;;;5055522;28;20017;-58
2021/06/09 05:40:58;;;;;;;1.10;0.40;;;18.90;52.20;;;;;;5072586;28;20036;-58
2021/06/09 05:43:28;;;;;;;0.38;0.35;;;18.80;52.40;;;;;;5073079;28;20021;-59
2021/06/09 05:45:56;;;;;;;1.98;0.45;;;18.70;51.80;;;;;;5073784;28;20103;-52
2021/06/09 05:48:24;;;;;;;1.92;0.60;;;18.50;52.70;;;;;;5062861;28;20055;-53
2021/06/09 05:50:56;;;;;;;2.53;0.32;;;18.40;53.00;;;;;;5067818;28;20037;-56
2021/06/09 05:53:28;;;;;;;2.42;0.35;;;18.30;53.70;;;;;;5052723;28;20035;-58
2021/06/09 05:55:55;;;;;;;0.38;0.30;;;18.20;54.00;;;;;;5068862;28;20032;-49
2021/06/09 05:58:24;;;;;;;0.45;0.40;;;18.10;54.20;;;;;;5069924;28;20581;-53
2021/06/09 06:01:01;;;;;;;0.43;0.35;;;18.10;54.60;;;;;;5070075;28;20537;-56
2021/06/09 06:03:29;;;;;;;0.60;0.40;;;18.00;54.60;;;;;;5068021;28;20073;-53
2021/06/09 06:06:03;;;;;;;0.28;0.28;;;17.90;55.40;;;;;;5067333;28;20039;-49
2021/06/09 06:08:32;;;;;;;1.45;0.40;;;17.90;55.50;;;;;;5066257;28;20025;-50
2021/06/09 06:11:05;;;;;;;0.82;0.35;;;17.80;56.10;;;;;;5069877;28;20055;-50
2021/06/09 06:13:34;;;;;;;1.92;0.50;;;17.80;56.30;;;;;;5066881;28;20089;-54
2021/06/09 06:16:01;;;;;;;6.28;0.60;;;17.70;56.50;;;;;;5067494;28;20328;-49
2021/06/09 06:18:37;;;;;;;1.00;0.38;;;17.60;56.70;;;;;;5067835;28;20047;-54
2021/06/09 06:21:06;;;;;;;0.25;0.20;;;17.60;56.90;;;;;;5066890;28;20016;-51
2021/06/09 06:23:35;;;;;;;0.75;0.52;;;17.50;57.20;;;;;;5071322;28;20420;-45
2021/06/09 06:26:03;;;;;;;0.77;0.35;;;17.50;57.50;;;;;;5072840;28;20364;-56
2021/06/09 06:28:32;;;;;;;2.15;0.52;;;17.40;57.70;;;;;;5072700;28;20021;-50
2021/06/09 06:31:03;;;;;;;1.85;0.38;;;17.40;57.90;;;;;;5073214;28;20021;-52
2021/06/09 06:33:32;;;;;;;0.60;0.50;;;17.30;58.10;;;;;;5054799;28;20028;-55
2021/06/09 06:36:01;;;;;;;3.88;0.40;;;17.20;58.20;;;;;;5072180;28;20566;-51
2021/06/09 06:38:29;;;;;;;1.85;0.60;;;17.20;58.50;;;;;;5071890;28;20032;-55
2021/06/09 06:40:57;;;;;;;2.78;0.63;;;17.20;58.60;;;;;;5072635;28;20031;-52
2021/06/09 06:43:24;;;;;;;1.10;0.30;;;17.20;59.00;;;;;;5068499;28;20059;-53
2021/06/09 06:45:51;;;;;;;3.25;0.88;;;17.10;59.00;;;;;;5072359;28;20031;-56
2021/06/09 06:48:21;;;;;;;3.83;0.40;;;17.00;59.10;;;;;;5072114;28;20324;-59
2021/06/09 06:50:49;;;;;;;4.57;1.10;;;16.90;58.70;;;;;;5070883;28;20386;-50
2021/06/09 06:53:17;;;;;;;1.60;0.50;;;16.60;56.60;;;;;;5071295;28;20120;-47
2021/06/09 06:55:45;;;;;;;5.93;1.58;;;16.10;52.70;;;;;;5071266;28;20094;-54
2021/06/09 06:58:12;;;;;;;9.90;4.32;;;16.00;52.60;;;;;;5071851;28;20052;-58
2021/06/09 07:00:40;;;;;;;23.50;7.72;;;16.00;59.20;;;;;;5071715;28;20029;-57
2021/06/09 07:03:09;;;;;;;2.28;1.83;;;16.10;55.00;;;;;;5071615;28;20112;-56
2021/06/09 07:05:37;;;;;;;15.60;9.38;;;16.00;52.50;;;;;;5071323;28;20024;-55
2021/06/09 07:08:05;;;;;;;21.17;15.75;;;16.00;54.90;;;;;;5069809;28;20051;-56
2021/06/09 07:10:34;;;;;;;6.38;5.47;;;15.90;57.20;;;;;;5053242;28;20356;-51
2021/06/09 07:13:05;;;;;;;19.67;8.80;;;15.70;53.60;;;;;;5071450;28;20059;-49
2021/06/09 07:15:33;;;;;;;22.65;13.75;;;15.70;56.30;;;;;;5071865;28;20097;-51
2021/06/09 07:18:01;;;;;;;33.08;14.30;;;15.90;56.50;;;;;;5071775;28;20020;-57
2021/06/09 07:20:30;;;;;;;34.25;25.38;;;15.80;55.80;;;;;;5071271;28;20025;-50
2021/06/09 07:22:58;;;;;;;22.88;16.15;;;15.80;59.20;;;;;;5071823;28;20024;-60
2021/06/09 07:25:29;;;;;;;19.10;12.98;;;15.70;59.00;;;;;;5071734;28;20036;-50
2021/06/09 07:28:04;;;;;;;39.05;31.73;;;15.60;58.40;;;;;;5071623;28;20101;-57
2021/06/09 07:30:34;;;;;;;13.82;12.38;;;15.70;60.60;;;;;;5071268;28;20036;-60
2021/06/09 07:33:11;;;;;;;51.13;19.25;;;15.80;61.50;;;;;;5072145;28;20021;-57
2021/06/09 07:35:38;;;;;;;32.83;24.15;;;15.80;59.50;;;;;;5071497;28;20035;-59
2021/06/09 07:38:13;;;;;;;43.30;33.35;;;16.00;64.50;;;;;;5071316;28;20032;-54
2021/06/09 07:40:43;;;;;;;9.75;4.78;;;16.00;62.70;;;;;;5071469;28;20068;-61
2021/06/09 07:43:20;;;;;;;27.75;14.20;;;15.70;60.30;;;;;;5071760;28;20064;-58
2021/06/09 07:45:49;;;;;;;31.13;23.00;;;15.50;62.10;;;;;;5071573;28;20578;-57
2021/06/09 07:48:24;;;;;;;34.40;20.33;;;15.70;66.00;;;;;;5071514;28;20057;-63
2021/06/09 07:51:18;;;;;;;27.30;16.25;;;16.00;65.20;;;;;;5071857;28;20059;-56
2021/06/09 07:53:48;;;;;;;11.20;6.53;;;16.20;65.10;;;;;;5067478;28;20083;-57
2021/06/09 07:56:17;;;;;;;8.65;3.00;;;16.20;64.20;;;;;;5071784;28;20032;-59
2021/06/09 07:58:48;;;;;;;5.10;2.67;;;16.20;61.20;;;;;;5071241;28;20029;-63
2021/06/09 08:01:16;;;;;;;23.50;6.47;;;16.00;62.20;;;;;;5071166;28;20055;-57
2021/06/09 08:03:44;;;;;;;19.33;5.18;;;15.90;60.90;;;;;;5054132;28;20028;-54
2021/06/09 08:06:14;;;;;;;23.55;4.65;;;15.70;61.90;;;;;;5064340;28;20017;-50
2021/06/09 08:08:44;;;;;;;7.88;4.13;;;15.40;65.00;;;;;;5070741;28;20031;-50
2021/06/09 08:11:12;;;;;;;27.38;19.05;;;15.30;63.50;;;;;;5072744;28;20031;-50
2021/06/09 08:13:41;;;;;;;22.50;12.55;;;15.50;65.00;;;;;;5072303;28;20074;-48
2021/06/09 08:16:16;;;;;;;21.52;7.43;;;15.50;63.40;;;;;;5069081;28;20123;-50
2021/06/09 08:18:45;;;;;;;9.43;4.00;;;15.40;64.60;;;;;;5065924;28;20179;-49
2021/06/09 08:21:14;;;;;;;14.40;4.95;;;15.20;65.10;;;;;;5071374;28;20032;-49
2021/06/09 08:23:45;;;;;;;11.68;4.32;;;15.00;64.20;;;;;;5072378;28;20375;-51
2021/06/09 08:26:14;;;;;;;3.03;2.00;;;15.10;66.00;;;;;;5072607;28;20145;-54
2021/06/09 08:28:47;;;;;;;13.93;2.78;;;14.80;62.80;;;;;;5067486;28;20016;-51
2021/06/09 08:31:21;;;;;;;22.67;14.07;;;14.60;64.00;;;;;;5066859;28;20081;-52
2021/06/09 08:33:50;;;;;;;9.20;6.20;;;14.70;65.00;;;;;;5073099;28;20550;-55
2021/06/09 08:36:18;;;;;;;7.30;5.97;;;14.80;67.60;;;;;;5074216;28;20494;-60
2021/06/09 08:38:49;;;;;;;46.00;32.50;;;14.70;63.20;;;;;;5073998;28;20033;-56
2021/06/09 08:41:18;;;;;;;33.75;28.27;;;14.90;70.90;;;;;;5073616;28;20056;-58
2021/06/09 08:43:48;;;;;;;23.45;17.40;;;15.10;64.60;;;;;;5074914;28;20125;-55
2021/06/09 08:46:17;;;;;;;16.48;11.90;;;15.10;64.40;;;;;;5075159;28;20477;-50
2021/06/09 08:48:46;;;;;;;19.65;15.60;;;14.90;67.30;;;;;;5074719;28;20074;-58
2021/06/09 08:51:17;;;;;;;17.52;11.60;;;14.80;70.50;;;;;;5074783;28;20039;-62
2021/06/09 08:53:47;;;;;;;30.73;18.52;;;14.90;64.20;;;;;;5074665;28;20020;-55
2021/06/09 08:56:15;;;;;;;21.45;14.68;;;14.90;73.60;;;;;;5056318;28;20390;-63
2021/06/09 08:58:43;;;;;;;27.90;11.68;;;15.30;72.90;;;;;;5074271;28;20516;-55
2021/06/09 09:01:12;;;;;;;26.30;13.68;;;15.40;74.20;;;;;;5074225;28;20021;-54
2021/06/09 09:03:43;;;;;;;24.80;13.60;;;15.60;74.90;;;;;;5074345;28;20036;-60
2021/06/09 09:06:11;;;;;;;14.13;9.98;;;15.70;72.10;;;;;;5074296;28;20032;-61
2021/06/09 09:08:38;;;;;;;6.05;3.53;;;15.70;74.40;;;;;;5056169;28;20497;-59
2021/06/09 09:11:06;;;;;;;13.90;9.73;;;15.30;63.60;;;;;;5074407;28;20032;-48
2021/06/09 09:13:34;;;;;;;15.75;8.27;;;15.00;74.00;;;;;;5056156;28;20124;-54
2021/06/09 09:16:02;;;;;;;12.60;8.05;;;14.80;79.50;;;;;;5055269;28;20487;-59
2021/06/09 09:18:54;;;;;;;12.95;5.45;;;15.20;77.80;;;;;;5074058;28;20028;-48
2021/06/09 09:21:47;;;;;;;8.55;3.25;;;15.10;74.20;;;;;;5074484;28;20039;-60
2021/06/09 09:24:16;;;;;;;9.18;7.13;;;14.90;77.20;;;;;;5070669;28;20024;-61
2021/06/09 09:26:50;;;;;;;16.20;7.43;;;15.30;70.80;;;;;;5073926;28;20116;-59
2021/06/09 09:29:23;;;;;;;4.18;2.40;;;15.20;83.60;;;;;;5073778;28;20052;-55
2021/06/09 09:31:52;;;;;;;;;;;14.90;63.00;;;;;;5074506;28;20089;-63
2021/06/09 09:34:30;;;;;;;26.52;7.20;;;14.90;72.90;;;;;;5073866;28;20001;-56
2021/06/09 09:37:25;;;;;;;6.32;2.35;;;15.20;77.30;;;;;;5073322;28;20064;-58
2021/06/09 09:40:17;;;;;;;36.55;21.77;;;15.10;64.80;;;;;;5071317;28;20170;-62
2021/06/09 09:42:51;;;;;;;11.07;5.97;;;15.20;69.40;;;;;;5073238;28;20024;-59
2021/06/09 09:45:28;;;;;;;16.65;8.13;;;15.30;67.70;;;;;;5073999;28;20017;-59
2021/06/09 09:48:04;;;;;;;34.35;18.08;;;14.80;73.10;;;;;;5073802;28;20051;-63
2021/06/09 09:50:42;;;;;;;33.35;15.55;;;14.80;81.20;;;;;;5073437;28;20476;-51
2021/06/09 09:53:23;;;;;;;37.38;24.58;;;14.90;73.30;;;;;;5073747;28;20016;-54
2021/06/09 09:56:12;;;;;;;31.42;19.75;;;15.00;77.40;;;;;;5073653;28;20040;-50
2021/06/09 09:58:51;;;;;;;52.70;24.45;;;14.60;75.70;;;;;;5073348;28;20032;-59
2021/06/09 10:01:20;;;;;;;19.83;10.38;;;14.80;81.50;;;;;;5073841;28;20459;-62
2021/06/09 10:03:51;;;;;;;23.70;20.23;;;14.80;64.20;;;;;;5073602;28;20378;-51
2021/06/09 10:06:29;;;;;;;34.53;21.38;;;14.70;67.50;;;;;;5073544;28;20029;-56
2021/06/09 10:09:06;;;;;;;23.00;10.35;;;14.40;71.90;;;;;;5073177;28;20025;-58
2021/06/09 10:11:37;;;;;;;10.07;7.18;;;14.50;68.30;;;;;;5073086;28;20028;-58
2021/06/09 10:14:19;;;;;;;17.83;9.05;;;14.30;77.80;;;;;;5073056;28;20444;-52
2021/06/09 10:16:48;;;;;;;17.02;11.30;;;14.70;83.50;;;;;;5073149;28;20078;-62
2021/06/09 10:19:16;;;;;;;15.93;6.50;;;14.30;69.80;;;;;;5072903;28;20360;-63
2021/06/09 10:21:44;;;;;;;20.48;12.38;;;13.70;67.50;;;;;;5073203;28;20089;-59
2021/06/09 10:24:11;;;;;;;39.38;17.73;;;14.50;69.30;;;;;;5072904;28;20505;-58
2021/06/09 10:26:41;;;;;;;20.35;12.10;;;14.40;86.40;;;;;;5072806;28;20387;-59
2021/06/09 10:29:20;;;;;;;5.10;2.92;;;14.50;82.90;;;;;;5073251;28;20395;-50
2021/06/09 10:31:51;;;;;;;40.13;16.92;;;14.50;69.60;;;;;;5073123;28;20035;-60
2021/06/09 10:34:18;;;;;;;22.52;10.20;;;14.60;82.40;;;;;;5060984;28;20039;-60
2021/06/09 10:36:48;;;;;;;29.48;7.32;;;14.50;79.40;;;;;;5068119;28;20032;-57
2021/06/09 10:39:18;;;;;;;22.75;6.78;;;14.30;82.20;;;;;;5068061;28;20020;-58
2021/06/09 10:41:49;;;;;;;27.77;7.60;;;14.50;70.70;;;;;;5069460;28;20025;-50
2021/06/09 10:44:18;;;;;;;13.32;6.00;;;14.70;84.50;;;;;;5069775;28;20100;-46
2021/06/09 10:46:54;;;;;;;16.67;4.72;;;14.50;75.40;;;;;;5070009;28;20048;-49
2021/06/09 10:49:23;;;;;;;15.10;6.20;;;14.20;81.70;;;;;;5063697;28;20020;-49
2021/06/09 10:51:54;;;;;;;13.15;5.90;;;14.60;83.90;;;;;;5067818;28;20036;-54
2021/06/09 10:54:26;;;;;;;17.70;5.88;;;15.00;81.50;;;;;;5067701;28;20160;-53
2021/06/09 10:56:55;;;;;;;14.63;5.75;;;15.30;79.80;;;;;;5049728;28;20190;-53
2021/06/09 10:59:31;;;;;;;11.63;5.53;;;15.40;79.40;;;;;;5064408;28;20036;-51
2021/06/09 11:02:12;;;;;;;17.65;6.78;;;15.60;78.00;;;;;;5067713;28;20383;-51
2021/06/09 11:04:46;;;;;;;11.55;4.38;;;15.60;77.00;;;;;;5065893;28;20016;-58
2021/06/09 11:07:37;;;;;;;12.43;4.70;;;15.70;76.10;;;;;;5066608;28;20028;-50
2021/06/09 11:10:37;;;;;;;7.97;4.45;;;15.70;75.40;;;;;;5064987;28;20028;-52
2021/06/09 11:13:06;;;;;;;9.25;4.10;;;15.60;74.70;;;;;;5061047;28;20395;-54
2021/06/09 11:15:34;;;;;;;10.45;4.43;;;15.70;74.40;;;;;;5065482;28;20036;-55
2021/06/09 11:18:16;;;;;;;7.72;4.05;;;15.60;74.40;;;;;;5066013;28;20109;-55
2021/06/09 11:20:48;;;;;;;10.35;3.97;;;15.60;74.30;;;;;;5066252;28;20024;-50
2021/06/09 11:23:26;;;;;;;9.07;3.55;;;15.60;74.20;;;;;;5069656;28;20084;-51
2021/06/09 11:25:53;;;;;;;9.25;4.25;;;15.60;74.00;;;;;;5068627;28;20043;-52
2021/06/09 11:28:31;;;;;;;6.57;3.20;;;15.60;73.40;;;;;;5065772;28;20060;-48
2021/06/09 11:31:13;;;;;;;15.70;3.35;;;15.60;73.40;;;;;;5053308;28;20052;-51
2021/06/09 11:33:52;;;;;;;5.32;2.88;;;15.60;73.00;;;;;;5065956;28;20062;-54
2021/06/09 11:36:20;;;;;;;12.23;3.63;;;15.60;73.00;;;;;;5065693;28;20052;-54
2021/06/09 11:38:49;;;;;;;7.22;3.10;;;15.50;72.80;;;;;;5064163;28;20046;-48
2021/06/09 11:41:21;;;;;;;8.73;2.90;;;15.50;72.70;;;;;;5066080;28;20024;-58
2021/06/09 11:43:57;;;;;;;10.75;3.20;;;15.50;72.50;;;;;;5066128;28;20028;-53
2021/06/09 11:46:39;;;;;;;8.05;3.03;;;15.50;72.60;;;;;;5066483;28;20040;-45
2021/06/09 11:49:07;;;;;;;6.45;2.75;;;15.50;72.30;;;;;;5065932;28;20474;-48
2021/06/09 11:52:01;;;;;;;3.47;2.58;;;15.50;72.20;;;;;;5068721;28;20348;-49
2021/06/09 11:54:35;;;;;;;5.00;2.38;;;15.40;72.00;;;;;;5060402;28;20028;-51
2021/06/09 11:57:24;;;;;;;6.35;2.45;;;15.40;71.70;;;;;;5067482;28;20033;-45
2021/06/09 11:59:52;;;;;;;6.47;2.97;;;15.40;72.00;;;;;;5065656;28;20113;-48
2021/06/09 12:02:26;;;;;;;3.15;2.10;;;15.40;72.00;;;;;;5067428;28;20016;-49
2021/06/09 12:04:58;;;;;;;6.03;2.50;;;15.40;71.90;;;;;;5066187;28;20071;-50
2021/06/09 12:07:34;;;;;;;7.38;2.22;;;15.40;71.90;;;;;;5044619;28;20033;-53
2021/06/09 12:10:11;;;;;;;4.72;1.70;;;15.30;71.60;;;;;;5068432;28;20494;-50
2021/06/09 12:12:39;;;;;;;4.20;1.83;;;15.30;71.60;;;;;;5069067;28;20403;-47
2021/06/09 12:15:11;;;;;;;6.50;2.25;;;15.30;71.60;;;;;;5068909;28;20479;-51
2021/06/09 12:17:43;;;;;;;4.07;1.58;;;15.30;71.60;;;;;;5063861;28;20049;-51
2021/06/09 12:20:16;;;;;;;3.65;1.77;;;15.30;71.40;;;;;;5069091;28;20119;-44
2021/06/09 12:22:56;;;;;;;12.55;1.92;;;15.30;71.50;;;;;;5068165;28;20162;-48
2021/06/09 12:25:25;;;;;;;3.88;1.50;;;15.30;71.30;;;;;;5065337;28;20029;-53
2021/06/09 12:28:10;;;;;;;8.02;1.90;;;15.30;71.30;;;;;;5065550;28;20141;-54
2021/06/09 12:30:42;;;;;;;4.40;1.42;;;15.30;71.50;;;;;;5048713;28;20051;-47
2021/06/09 12:33:10;;;;;;;3.03;1.45;;;15.30;71.50;;;;;;5069667;28;20028;-50
2021/06/09 12:35:38;;;;;;;2.85;1.17;;;15.30;71.20;;;;;;5068790;28;20025;-50
2021/06/09 12:38:08;;;;;;;4.45;1.42;;;15.20;71.20;;;;;;5066097;28;20025;-55
2021/06/09 12:40:40;;;;;;;5.90;1.20;;;15.20;71.10;;;;;;5068827;28;20051;-47
2021/06/09 12:43:11;;;;;;;2.40;1.30;;;15.20;70.90;;;;;;5068376;28;20475;-50
2021/06/09 12:45:45;;;;;;;4.95;1.77;;;15.20;71.00;;;;;;5069581;28;20017;-47
2021/06/09 12:48:17;;;;;;;2.72;1.20;;;15.20;70.90;;;;;;5065872;28;20032;-50
2021/06/09 12:50:47;;;;;;;7.70;1.17;;;15.10;70.70;;;;;;5069536;28;20044;-47
2021/06/09 12:53:20;;;;;;;1.85;1.30;;;15.10;70.60;;;;;;5072771;28;20422;-46
2021/06/09 12:55:59;;;;;;;3.28;1.30;;;15.10;70.80;;;;;;5072812;28;20033;-43
2021/06/09 12:58:30;;;;;;;1.67;0.95;;;15.10;70.80;;;;;;5069140;28;20063;-45
2021/06/09 13:01:04;;;;;;;1.95;0.80;;;15.10;70.80;;;;;;5073156;28;20028;-54
2021/06/09 13:03:44;;;;;;;1.85;1.00;;;15.00;70.90;;;;;;5070807;28;20025;-48